Latest Weather Observations for Innisfail Aero

IDQ60801

Issued at 8:51 pm EST Thursday 17 January 2019 (issued every 10 minutes, with the page automatically refreshed every 10 minutes)

About weather observations | Map of weather stations | Latest weather observations for QLD | Other Formats
Station Details ID: 032197 Name: INNISFAIL AERODROME Lat: -17.56 Lon: 146.01 Height: 11.84 m
Data from the previous 72 hours. | See also: Recent months at Innisfail Aero
Date/Time
EST
Temp
°C
App
Temp
°C
Dew
Point
°C
Rel
Hum
%
Delta-T
°C
Wind Press
QNH
hPa
Press
MSL
hPa
Rain since
9am
mm
Dir  Spd
km/h
Gust
km/h
Spd
kts
Gust
kts
17/08:30pm 24.6 27.7 21.5 83 2.1 SSW 7 9 4 5 1010.6 1010.5 0.0
17/08:00pm 25.1 28.4 21.8 82 2.2 SSW 7 9 4 5 1010.4 1010.3 0.0
17/07:30pm 25.5 28.7 21.6 79 2.6 SSE 7 9 4 5 1009.9 1009.8 0.0
17/07:00pm 25.7 27.9 21.1 76 3.0 SSE 11 13 6 7 1009.5 1009.4 0.0
17/06:30pm 27.2 28.6 21.0 69 4.1 SE 15 22 8 12 1008.9 1008.8 0.0
17/06:00pm 27.9 27.8 19.9 61 5.2 SE 20 28 11 15 1008.4 1008.3 0.0
17/05:30pm 28.6 29.0 20.9 63 5.1 SE 20 26 11 14 1007.8 1007.7 0.0
17/05:00pm 29.2 29.6 20.9 61 5.5 SE 20 26 11 14 1007.3 1007.2 0.0
17/04:30pm 29.7 30.6 21.9 63 5.3 SE 20 28 11 15 1007.2 1007.1 0.0
17/04:00pm 28.9 29.9 22.2 67 4.5 ESE 20 30 11 16 1007.4 1007.3 0.0
17/03:30pm 29.8 30.3 21.2 60 5.7 SE 20 26 11 14 1007.6 1007.5 0.0
17/03:00pm 28.7 29.6 21.5 65 4.8 ESE 19 28 10 15 1007.8 1007.7 0.0
17/02:30pm 29.9 31.1 22.1 63 5.3 ESE 19 28 10 15 1008.2 1008.1 0.0
17/02:00pm 30.4 32.2 22.6 63 5.3 E 17 24 9 13 1008.4 1008.3 0.0
17/01:30pm 29.8 30.9 21.2 60 5.7 E 17 24 9 13 1009.0 1008.9 0.0
17/01:00pm 30.6 31.9 20.8 56 6.5 ENE 15 20 8 11 1009.4 1009.3 0.0
17/12:30pm 29.8 30.3 19.2 53 6.9 E 15 22 8 12 1010.0 1009.9 0.0
17/12:18pm 30.4 32.1 20.9 57 6.3 ENE 13 24 7 13 1010.2 1010.1 0.0
17/12:00pm 30.2 31.7 21.3 59 6.0 ENE 15 22 8 12 1010.4 1010.3 0.0
17/11:50am 30.2 31.6 21.0 58 6.1 E 15 24 8 13 1010.5 1010.4 0.0
17/11:30am 30.2 31.9 21.0 58 6.1 ENE 13 22 7 12 1010.8 1010.7 0.0
17/11:00am 29.8 30.9 20.4 57 6.2 E 15 22 8 12 1011.0 1010.9 0.0
17/10:30am 29.6 32.0 21.5 61 5.4 ENE 11 20 6 11 1011.2 1011.1 0.0
17/10:00am 28.9 30.7 21.1 62 5.2 ENE 13 20 7 11 1011.2 1011.1 0.0
17/09:30am 28.6 31.8 22.3 68 4.3 E 9 15 5 8 1011.0 1010.9 0.0
17/09:00am 27.9 31.3 21.7 69 4.2 SSE 6 11 3 6 1011.0 1010.9 -
17/08:30am 27.3 32.5 22.9 77 3.0 CALM 0 6 0 3 1010.7 1010.6 -
17/08:00am 25.4 30.6 22.9 86 1.7 CALM 0 6 0 3 1010.7 1010.6 -
17/07:30am 23.7 28.1 22.1 91 1.1 WNW 2 6 1 3 1010.5 1010.4 -
17/07:00am 22.4 26.0 22.1 98 0.2 SW 6 7 3 4 1010.3 1010.2 -
17/06:30am 21.6 26.0 21.4 99 0.1 CALM 0 0 0 0 1010.1 1010.0 -
17/06:00am 21.4 25.7 21.2 99 0.1 CALM 0 0 0 0 1009.6 1009.5 -
17/05:30am 20.9 24.9 20.6 98 0.2 CALM 0 0 0 0 1009.3 1009.2 -
17/05:00am 20.3 24.0 20.0 98 0.2 CALM 0 0 0 0 1009.0 1008.9 -
17/04:30am 21.1 25.2 20.8 98 0.2 CALM 0 0 0 0 1008.9 1008.8 -
17/04:00am 21.0 25.1 20.7 98 0.2 CALM 0 0 0 0 1008.9 1008.8 -
17/03:30am 21.0 23.7 20.7 98 0.2 N 7 9 4 5 1009.0 1008.9 -
17/03:18am 21.3 24.2 21.0 98 0.2 N 7 7 4 4 1009.1 1009.0 -
17/03:00am 21.1 24.0 20.6 97 0.3 NNW 6 6 3 3 1009.3 1009.2 0.0
17/02:30am 21.6 25.1 21.1 97 0.3 N 4 7 2 4 1009.6 1009.5 -
17/02:00am 21.5 25.2 20.8 96 0.5 NW 2 6 1 3 1009.8 1009.7 -
17/01:30am 22.3 25.5 21.6 96 0.5 SW 7 9 4 5 1010.0 1009.9 -
17/01:00am 22.4 25.7 21.9 97 0.3 SW 7 9 4 5 1010.3 1010.2 -
17/12:30am 22.0 25.6 21.2 95 0.5 WNW 4 7 2 4 1010.6 1010.5 -
17/12:00am 22.8 27.5 22.0 95 0.5 CALM 0 4 0 2 1011.0 1010.9 -
 
Date/Time
EST
Temp
°C
App
Temp
°C
Dew
Point
°C
Rel
Hum
%
Delta-T
°C
Wind Press
QNH
hPa
Press
MSL
hPa
Rain since
9am
mm
Dir  Spd
km/h
Gust
km/h
Spd
kts
Gust
kts
16/11:30pm 23.0 26.2 21.6 92 0.9 SW 7 7 4 4 1011.2 1011.1 -
16/11:00pm 23.8 27.0 22.4 92 0.9 SW 9 11 5 6 1011.4 1011.3 -
16/10:30pm 23.8 26.9 22.2 91 1.1 WSW 9 11 5 6 1011.2 1011.1 -
16/10:00pm 24.0 27.2 22.4 91 1.1 SW 9 11 5 6 1011.1 1011.0 -
16/09:30pm 23.9 27.0 22.2 90 1.1 SW 9 11 5 6 1011.0 1010.9 -
16/09:00pm 24.1 27.2 22.2 89 1.3 SW 9 11 5 6 1010.8 1010.7 0.0
16/08:30pm 24.4 27.7 22.5 89 1.3 SSW 9 11 5 6 1010.7 1010.6 -
16/08:00pm 24.4 27.9 22.1 87 1.5 SW 7 9 4 5 1010.4 1010.3 -
16/07:30pm 25.3 28.7 22.0 82 2.2 SSE 7 9 4 5 1010.2 1010.1 -
16/07:00pm 26.1 28.5 21.5 76 3.1 SE 11 15 6 8 1009.9 1009.8 -
16/06:30pm 27.3 28.7 21.8 72 3.7 SE 17 22 9 12 1009.5 1009.4 -
16/06:00pm 27.7 28.4 22.2 72 3.7 SE 22 28 12 15 1009.1 1009.0 -
16/05:30pm 27.8 28.6 21.8 70 4.0 SSE 20 28 11 15 1008.7 1008.6 -
16/05:00pm 28.4 29.0 21.4 66 4.7 SE 20 32 11 17 1008.5 1008.4 -
16/04:30pm 28.7 28.5 21.2 64 5.0 SE 24 30 13 16 1008.4 1008.3 -
16/04:00pm 29.3 29.4 21.8 64 5.1 ESE 24 33 13 18 1008.3 1008.2 -
16/03:30pm 30.2 29.6 21.3 59 6.0 SE 26 33 14 18 1008.3 1008.2 -
16/03:00pm 30.5 30.1 21.0 57 6.4 SE 24 30 13 16 1008.5 1008.4 -
16/02:30pm 30.2 28.8 19.6 53 6.9 SE 26 35 14 19 1008.6 1008.5 -
16/02:00pm 30.0 29.5 20.8 57 6.1 SE 24 32 13 17 1008.9 1008.8 -
16/01:30pm 30.3 31.0 22.2 62 5.5 SE 22 33 12 18 1009.2 1009.1 -
16/01:00pm 30.7 31.2 22.0 59 5.9 SE 22 32 12 17 1009.5 1009.4 -
16/12:30pm 29.8 30.9 22.3 64 5.1 SE 20 28 11 15 1009.8 1009.7 -
16/12:00pm 29.1 29.6 21.1 62 5.3 SE 20 32 11 17 1010.1 1010.0 -
16/11:30am 30.1 30.8 21.5 60 5.8 SE 20 30 11 16 1010.2 1010.1 -
16/11:00am 29.9 30.2 21.6 61 5.6 SE 22 33 12 18 1010.7 1010.6 -
16/10:30am 30.1 31.4 22.3 63 5.3 SE 19 28 10 15 1011.2 1011.1 -
16/10:00am 29.4 31.0 22.1 65 4.9 SE 17 24 9 13 1011.4 1011.3 -
16/09:30am 28.7 31.6 23.1 71 3.8 SE 13 17 7 9 1011.5 1011.4 -
16/09:00am 28.1 32.3 23.5 76 3.2 SSE 7 11 4 6 1011.6 1011.5 36.4
16/08:30am 26.3 30.1 22.8 81 2.4 SSW 7 11 4 6 1011.6 1011.5 36.4
16/08:00am 25.6 29.6 23.8 90 1.2 SSW 9 13 5 7 1011.3 1011.2 36.4
16/07:30am 24.7 29.5 23.5 93 0.8 WSW 4 9 2 5 1011.2 1011.1 36.4
16/07:00am 24.0 28.9 23.1 95 0.6 W 2 6 1 3 1011.0 1010.9 36.4
16/06:30am 23.9 28.0 23.2 96 0.5 NNE 7 9 4 5 1010.9 1010.8 36.2
16/06:00am 23.7 27.3 23.0 96 0.5 WSW 9 13 5 7 1010.4 1010.3 36.2
16/05:30am 23.7 27.3 23.0 96 0.5 WSW 9 11 5 6 1010.0 1009.9 36.2
16/05:00am 23.6 27.7 22.9 96 0.5 WSW 6 9 3 5 1009.6 1009.5 36.2
16/04:30am 23.5 27.0 22.8 96 0.5 WSW 9 11 5 6 1009.1 1009.0 36.2
16/04:00am 23.6 27.1 22.9 96 0.5 SE 9 15 5 8 1008.9 1008.8 36.2
16/03:30am 23.4 26.8 22.7 96 0.5 WSW 9 11 5 6 1009.0 1008.9 34.6
16/03:00am 23.6 28.0 22.8 95 0.5 ENE 4 9 2 5 1009.3 1009.2 34.6
16/02:30am 23.6 26.7 22.8 95 0.5 ESE 11 22 6 12 1009.6 1009.5 34.4
16/02:00am 23.6 27.3 22.6 94 0.7 WSW 7 11 4 6 1009.5 1009.4 32.0
16/01:30am 23.6 26.8 22.4 93 0.8 SW 9 13 5 7 1009.6 1009.5 32.0
16/01:00am 23.9 27.3 22.7 93 0.8 SW 9 11 5 6 1010.0 1009.9 32.0
16/12:30am 23.9 28.2 22.7 93 0.8 S 4 9 2 5 1010.4 1010.3 32.0
16/12:00am 24.1 27.6 22.9 93 0.8 SW 9 13 5 7 1010.7 1010.6 32.0
 
Date/Time
EST
Temp
°C
App
Temp
°C
Dew
Point
°C
Rel
Hum
%
Delta-T
°C
Wind Press
QNH
hPa
Press
MSL
hPa
Rain since
9am
mm
Dir  Spd
km/h
Gust
km/h
Spd
kts
Gust
kts
15/11:30pm 24.1 27.1 22.7 92 0.9 WSW 11 11 6 6 1011.1 1011.0 32.0
15/11:00pm 24.4 28.2 22.7 90 1.1 SSW 7 9 4 5 1011.3 1011.2 32.0
15/10:30pm 24.8 28.3 22.9 89 1.3 SSW 9 11 5 6 1011.5 1011.4 32.0
15/10:00pm 24.5 28.0 22.8 90 1.1 SSW 9 11 5 6 1011.3 1011.2 32.0
15/09:30pm 24.9 28.6 23.3 91 1.1 S 9 11 5 6 1011.1 1011.0 32.0
15/09:00pm 25.4 28.5 23.6 90 1.2 SSE 13 15 7 8 1010.9 1010.8 32.0
15/08:30pm 25.8 29.6 23.5 87 1.6 SE 9 13 5 7 1010.6 1010.5 31.8
15/08:00pm 26.0 29.2 23.7 87 1.6 ESE 13 17 7 9 1010.6 1010.5 31.8
15/07:30pm 26.1 29.9 24.0 88 1.4 SE 11 15 6 8 1010.5 1010.4 31.8
15/07:00pm 25.8 29.1 23.8 89 1.4 SSE 13 17 7 9 1010.3 1010.2 31.8
15/06:30pm 25.8 27.2 23.5 87 1.6 SE 22 39 12 21 1010.0 1009.9 31.8
15/06:00pm 26.6 28.4 23.3 82 2.3 SSE 19 26 10 14 1009.6 1009.5 31.6
15/05:30pm 26.3 30.0 24.5 90 1.2 SSE 13 20 7 11 1009.3 1009.2 31.6
15/05:00pm 26.9 30.2 24.5 87 1.7 S 15 20 8 11 1008.8 1008.7 31.6
15/04:30pm 26.9 29.8 25.1 90 1.3 S 19 24 10 13 1008.8 1008.7 31.6
15/04:00pm 26.2 28.6 24.6 91 1.1 SSE 20 26 11 14 1008.8 1008.7 31.6
15/03:30pm 26.8 25.3 22.0 75 3.2 SE 33 52 18 28 1008.9 1008.8 31.6
15/03:27pm 29.0 28.7 23.2 71 4.0 SE 30 48 16 26 1008.7 1008.6 31.6
15/03:00pm 29.3 30.3 23.5 71 4.0 SE 24 30 13 16 1008.8 1008.7 31.6
15/02:30pm 29.0 29.4 22.5 68 4.4 ESE 24 32 13 17 1009.0 1008.9 31.6
15/02:00pm 29.5 29.9 23.2 69 4.3 SE 26 35 14 19 1009.5 1009.4 31.6
15/01:30pm 30.1 30.4 23.0 65 4.9 SE 26 35 14 19 1009.7 1009.6 31.6
15/01:00pm 28.9 29.4 23.3 72 3.8 ESE 26 35 14 19 1010.0 1009.9 31.6
15/12:30pm 29.5 30.6 25.0 77 3.2 SE 28 39 15 21 1010.3 1010.2 31.6
15/12:26pm 29.6 30.6 24.7 75 3.4 SE 28 35 15 19 1010.4 1010.3 31.6
15/12:00pm 28.8 34.6 27.2 91 1.2 SE 11 17 6 9 1010.6 1010.5 31.6
15/11:30am 25.3 28.9 24.4 95 0.6 SSW 13 17 7 9 1011.1 1011.0 31.6
15/11:00am 24.7 26.6 23.8 95 0.6 SE 20 28 11 15 1011.5 1011.4 27.4
15/10:47am 24.7 28.8 24.0 96 0.5 ENE 9 13 5 7 1011.5 1011.4 22.2
15/10:30am 24.3 26.7 23.6 96 0.5 NE 17 32 9 17 1011.6 1011.5 19.4
15/10:17am 24.3 28.1 23.4 95 0.6 NE 9 22 5 12 1011.8 1011.7 17.2
15/10:00am 24.1 26.8 22.9 93 0.8 SE 13 26 7 14 1012.0 1011.9 13.4
15/09:30am 25.0 29.2 24.1 95 0.6 ESE 9 20 5 11 1011.9 1011.8 8.4
15/09:03am 26.1 30.4 24.9 93 0.8 WSW 11 19 6 10 1011.8 1011.7 0.0
15/09:00am 25.9 29.6 24.5 92 1.0 SW 13 19 7 10 1011.7 1011.6 24.2
15/08:43am 26.6 30.2 23.7 84 2.0 SSW 11 15 6 8 1011.8 1011.7 22.8
15/08:30am 27.0 30.9 24.8 88 1.5 SW 13 19 7 10 1011.8 1011.7 22.8
15/08:28am 26.7 30.3 24.4 87 1.6 SSW 13 19 7 10 1011.8 1011.7 22.8
15/08:00am 26.2 29.4 24.4 90 1.2 S 15 19 8 10 1011.7 1011.6 22.8
15/07:30am 25.2 28.9 24.5 96 0.5 S 13 17 7 9 1011.7 1011.6 22.8
15/07:25am 24.9 28.3 24.0 95 0.6 S 13 15 7 8 1011.6 1011.5 22.8
15/07:00am 24.7 27.6 23.8 95 0.6 S 15 20 8 11 1011.3 1011.2 22.8
15/06:43am 24.6 27.8 23.7 95 0.6 S 13 17 7 9 1011.4 1011.3 22.8
15/06:30am 24.5 27.8 23.8 96 0.5 S 13 15 7 8 1011.4 1011.3 22.8
15/06:00am 24.2 26.4 23.3 95 0.6 SSE 17 20 9 11 1010.6 1010.5 22.8
15/05:55am 24.3 27.0 23.4 95 0.6 SE 15 20 8 11 1010.7 1010.6 22.8
15/05:30am 24.9 28.7 24.0 95 0.6 S 11 15 6 8 1010.1 1010.0 21.6
15/05:00am 24.6 28.7 23.9 96 0.5 SSW 9 15 5 8 1009.5 1009.4 21.6
15/04:53am 24.5 28.4 23.6 95 0.6 S 9 11 5 6 1009.5 1009.4 21.4
15/04:30am 24.3 27.7 23.4 95 0.6 SSW 11 15 6 8 1009.5 1009.4 21.4
15/04:00am 24.6 27.6 23.4 93 0.8 SE 13 19 7 10 1009.2 1009.1 21.4
15/03:30am 25.2 28.8 23.8 92 1.0 SE 11 15 6 8 1009.1 1009.0 21.4
15/03:03am 25.2 28.0 23.6 91 1.1 SE 15 19 8 10 1009.2 1009.1 21.4
15/03:00am 25.4 28.4 24.0 92 1.0 SE 15 19 8 10 1009.3 1009.2 21.4
15/02:51am 25.0 29.2 24.1 95 0.6 S 9 17 5 9 1009.3 1009.2 21.4
15/02:30am 25.1 29.3 24.1 94 0.7 SSE 9 11 5 6 1009.3 1009.2 21.4
15/02:00am 25.1 28.8 23.9 93 0.8 S 11 13 6 7 1009.4 1009.3 20.2
15/01:30am 25.5 28.8 23.9 91 1.1 SE 13 17 7 9 1009.6 1009.5 20.2
15/01:00am 25.7 29.3 24.3 92 1.0 SE 13 20 7 11 1009.9 1009.8 20.2
15/12:44am 25.6 28.8 24.4 93 0.8 SSE 15 19 8 10 1009.9 1009.8 20.2
15/12:30am 25.5 29.6 24.5 94 0.7 SE 11 17 6 9 1010.0 1009.9 20.2
15/12:09am 25.3 28.5 24.4 95 0.6 SSE 15 20 8 11 1010.2 1010.1 20.2
15/12:00am 25.1 28.2 24.2 95 0.6 SSE 15 22 8 12 1010.2 1010.1 20.0
 
Date/Time
EST
Temp
°C
App
Temp
°C
Dew
Point
°C
Rel
Hum
%
Delta-T
°C
Wind Press
QNH
hPa
Press
MSL
hPa
Rain since
9am
mm
Dir  Spd
km/h
Gust
km/h
Spd
kts
Gust
kts
14/11:58pm 25.1 27.8 24.2 95 0.6 SE 17 26 9 14 1010.2 1010.1 20.0
14/11:32pm 24.2 25.0 23.2 94 0.7 E 24 33 13 18 1010.7 1010.6 17.2
14/11:30pm 24.1 25.2 23.1 94 0.7 E 22 33 12 18 1010.7 1010.6 17.0
14/11:00pm 25.0 29.2 24.1 95 0.6 SSE 9 11 5 6 1010.8 1010.7 14.0
14/10:30pm 24.6 27.0 23.6 94 0.7 SSE 17 28 9 15 1010.8 1010.7 14.0
14/10:28pm 24.5 26.8 23.5 94 0.7 SSE 17 28 9 15 1010.8 1010.7 14.0
14/10:09pm 24.7 26.6 23.8 95 0.6 SE 20 43 11 23 1011.0 1010.9 11.6
14/10:00pm 24.8 28.5 23.9 95 0.6 S 11 20 6 11 1010.7 1010.6 8.2
14/09:58pm 24.8 28.1 23.9 95 0.6 SSE 13 20 7 11 1010.6 1010.5 8.2
14/09:48pm 24.7 27.4 23.5 93 0.8 ESE 15 20 8 11 1010.6 1010.5 7.0
14/09:47pm 24.7 27.7 23.3 92 1.0 ESE 13 20 7 11 1010.7 1010.6 6.6
14/09:30pm 25.1 27.7 23.9 93 0.8 S 17 26 9 14 1010.3 1010.2 5.2
14/09:00pm 25.2 28.6 24.0 93 0.8 S 13 17 7 9 1010.4 1010.3 4.8

Other Formats:

Comma delimited format used in spreadsheet applications
http://www.bom.gov.au/fwo/IDQ60801/IDQ60801.94280.axf

JavaScript Object Notation format (JSON) in row-major order
http://www.bom.gov.au/fwo/IDQ60801/IDQ60801.94280.json